Time;durP1;ratioP1;P1;durP2;ratioP2;P2;SDS_P1;SDS_P2;PMS_P1;PMS_P2;Temp;Humidity;BMP_temperature;BMP_pressure;BME280_temperature;BME280_humidity;BME280_pressure;Samples;Min_cycle;Max_cycle;Signal;HPM_P1;HPM_P2
2023/04/10 00:00:23;;;;;;;22.25;15.73;;;;;;;10.76;64.81;102021.66;5073045;28;20429;-43
2023/04/10 00:02:49;;;;;;;21.13;14.55;;;;;;;10.75;65.48;102020.00;5073090;28;20039;-45
2023/04/10 00:05:15;;;;;;;21.90;15.18;;;;;;;10.75;65.07;102015.31;5072776;28;20363;-43
2023/04/10 00:07:41;;;;;;;22.13;15.25;;;;;;;10.72;64.41;102006.75;5071699;28;20024;-46
2023/04/10 00:10:06;;;;;;;23.48;15.38;;;;;;;10.72;65.12;101999.25;5073007;28;20116;-47
2023/04/10 00:12:31;;;;;;;22.02;15.05;;;;;;;10.72;65.68;101990.94;5071518;28;20134;-46
2023/04/10 00:14:57;;;;;;;22.83;14.98;;;;;;;10.75;65.13;101984.03;5072960;28;20035;-47
2023/04/10 00:17:22;;;;;;;22.30;15.00;;;;;;;10.74;65.05;101983.22;5072789;28;20031;-47
2023/04/10 00:19:47;;;;;;;22.40;15.23;;;;;;;10.68;64.29;101978.75;5072773;28;20071;-45
2023/04/10 00:22:13;;;;;;;22.50;15.48;;;;;;;10.66;64.51;101985.69;5072737;28;20107;-44
2023/04/10 00:24:38;;;;;;;21.98;15.05;;;;;;;10.71;64.77;101974.63;5072479;28;20474;-45
2023/04/10 00:27:03;;;;;;;22.02;15.32;;;;;;;10.73;64.82;101978.78;5072547;28;20074;-47
2023/04/10 00:29:29;;;;;;;21.33;14.88;;;;;;;10.67;63.46;101970.75;5068296;28;20040;-45
2023/04/10 00:31:54;;;;;;;20.83;14.82;;;;;;;10.64;64.65;101963.84;5072543;28;20028;-47
2023/04/10 00:34:19;;;;;;;21.27;15.48;;;;;;;10.60;64.44;101948.91;5072410;28;20028;-45
2023/04/10 00:36:46;;;;;;;22.02;15.23;;;;;;;10.54;64.47;101950.84;5072563;28;20068;-47
2023/04/10 00:39:12;;;;;;;21.48;14.93;;;;;;;10.59;64.58;101952.78;5072340;28;20132;-46
2023/04/10 00:41:37;;;;;;;22.02;15.25;;;;;;;10.56;64.89;101956.13;5072335;28;20513;-44
2023/04/10 00:44:03;;;;;;;21.90;15.25;;;;;;;10.59;64.97;101952.78;5072278;28;20039;-43
2023/04/10 00:46:30;;;;;;;21.70;14.65;;;;;;;10.44;64.57;101939.78;5072166;28;20107;-45
2023/04/10 00:48:56;;;;;;;22.63;15.32;;;;;;;10.47;65.35;101943.94;5072014;28;20493;-44
2023/04/10 00:51:21;;;;;;;22.15;14.65;;;;;;;10.47;65.80;101943.94;5072297;28;20032;-44
2023/04/10 00:53:50;;;;;;;23.48;15.65;;;;;;;10.51;65.84;101942.28;5072275;28;20592;-45
2023/04/10 00:56:17;;;;;;;22.15;15.05;;;;;;;10.45;65.57;101936.75;5071337;28;20107;-46
2023/04/10 00:58:43;;;;;;;21.85;15.15;;;;;;;10.50;65.52;101932.31;5071977;28;20052;-44
2023/04/10 01:01:08;;;;;;;22.98;15.50;;;;;;;10.51;64.74;101937.59;5071377;28;20162;-44
2023/04/10 01:03:35;;;;;;;21.50;14.73;;;;;;;10.53;65.42;101940.06;5071834;28;20024;-43
2023/04/10 01:06:10;;;;;;;22.17;15.35;;;;;;;10.53;65.97;101940.88;5071979;28;20134;-45
2023/04/10 01:08:54;;;;;;;21.75;15.02;;;;;;;10.59;65.64;101933.41;5071895;28;20472;-44
2023/04/10 01:11:42;;;;;;;23.00;15.15;;;;;;;10.58;65.11;101940.06;5071977;28;20398;-47
2023/04/10 01:14:32;;;;;;;21.77;14.95;;;;;;;10.60;65.11;101932.28;5063269;28;20160;-44
2023/04/10 01:17:06;;;;;;;22.08;15.23;;;;;;;10.54;64.70;101936.19;5071811;28;20104;-44
2023/04/10 01:19:37;;;;;;;21.10;14.98;;;;;;;10.54;65.00;101941.72;5071796;28;20028;-48
2023/04/10 01:22:04;;;;;;;22.02;14.95;;;;;;;10.51;65.57;101928.44;5071803;28;20470;-44
2023/04/10 01:25:00;;;;;;;22.20;15.38;;;;;;;10.57;65.13;101927.34;5071541;28;20486;-43
2023/04/10 01:27:55;;;;;;;21.63;15.15;;;;;;;10.56;65.36;101928.44;5071849;28;20029;-47
2023/04/10 01:30:22;;;;;;;21.38;14.57;;;;;;;10.46;65.41;101912.69;5038779;28;20090;-43
2023/04/10 01:32:50;;;;;;;21.65;14.60;;;;;;;10.33;65.64;101897.47;5071618;28;20389;-47
2023/04/10 01:35:17;;;;;;;21.60;14.95;;;;;;;10.50;65.28;101924.84;5071729;28;20032;-45
2023/04/10 01:37:46;;;;;;;22.67;15.38;;;;;;;10.50;65.39;101916.56;5071673;28;20039;-46
2023/04/10 01:40:14;;;;;;;21.85;15.40;;;;;;;10.45;65.03;101919.31;5071476;28;20390;-46
2023/04/10 01:42:50;;;;;;;22.52;15.25;;;;;;;10.44;65.51;101917.66;5071685;28;20032;-47
2023/04/10 01:45:21;;;;;;;22.52;15.77;;;;;;;10.45;65.47;101916.56;5071406;28;20026;-47
2023/04/10 01:47:46;;;;;;;21.70;15.15;;;;;;;10.41;64.97;101915.47;5071530;28;20367;-48
2023/04/10 01:50:13;;;;;;;23.17;14.77;;;;;;;10.36;65.57;101921.81;5071542;28;20104;-47
2023/04/10 01:52:39;;;;;;;22.00;14.90;;;;;;;10.32;65.58;101914.34;5071548;28;20101;-47
2023/04/10 01:55:07;;;;;;;21.85;14.65;;;;;;;10.29;66.61;101910.19;5071546;28;20131;-47
2023/04/10 01:57:34;;;;;;;21.73;14.38;;;;;;;10.21;65.49;101905.19;5071279;28;20033;-46
2023/04/10 02:00:00;;;;;;;22.27;14.85;;;;;;;10.13;65.90;101896.38;5071351;28;20074;-47
2023/04/10 02:02:30;;;;;;;22.17;15.52;;;;;;;10.18;66.83;101898.28;5071379;28;20449;-44
2023/04/10 02:04:55;;;;;;;22.02;15.20;;;;;;;10.14;67.26;101888.91;5071552;28;20079;-49
2023/04/10 02:08:00;;;;;;;24.05;15.70;;;;;;;10.12;67.05;101886.41;5073970;28;20512;-44
2023/04/10 02:10:49;;;;;;;22.50;15.52;;;;;;;10.10;67.05;101887.81;5075418;28;20032;-47
2023/04/10 02:13:20;;;;;;;23.20;15.77;;;;;;;10.05;66.63;101872.03;5074842;28;20076;-44
2023/04/10 02:15:49;;;;;;;22.50;16.05;;;;;;;10.05;67.26;101879.53;5075141;28;20017;-47
2023/04/10 02:18:16;;;;;;;23.13;16.15;;;;;;;10.02;66.96;101874.53;5074929;28;20363;-45
2023/04/10 02:20:42;;;;;;;23.20;15.90;;;;;;;9.95;66.98;101874.81;5074991;28;20104;-44
2023/04/10 02:23:08;;;;;;;22.45;15.82;;;;;;;9.92;67.53;101875.38;5074913;28;20120;-47
2023/04/10 02:25:34;;;;;;;22.02;15.38;;;;;;;9.88;67.17;101875.06;5074839;28;20127;-47
2023/04/10 02:28:03;;;;;;;23.10;16.70;;;;;;;9.86;67.47;101871.78;5073492;28;20503;-44
2023/04/10 02:30:29;;;;;;;22.90;16.63;;;;;;;9.89;67.76;101862.91;5074934;28;20032;-44
2023/04/10 02:32:54;;;;;;;22.95;16.77;;;;;;;9.88;67.71;101866.78;5074998;28;20082;-46
2023/04/10 02:35:20;;;;;;;23.20;16.27;;;;;;;9.86;67.85;101877.31;5071307;28;20374;-42
2023/04/10 02:37:46;;;;;;;24.30;16.40;;;;;;;9.82;67.34;101859.59;5073852;28;20024;-42
2023/04/10 02:40:11;;;;;;;22.65;16.42;;;;;;;9.79;67.96;101861.00;5074503;28;20078;-44
2023/04/10 02:42:37;;;;;;;23.30;15.95;;;;;;;9.74;67.04;101858.22;5074863;28;20166;-44
2023/04/10 02:45:03;;;;;;;22.13;16.00;;;;;;;9.73;67.75;101864.84;5074602;28;20111;-44
2023/04/10 02:47:29;;;;;;;22.65;16.42;;;;;;;9.71;67.87;101866.22;5074530;28;20044;-43
2023/04/10 02:49:54;;;;;;;23.45;16.77;;;;;;;9.72;68.58;101860.44;5073107;28;20048;-43
2023/04/10 02:52:19;;;;;;;22.95;16.13;;;;;;;9.75;68.78;101856.28;5074738;28;20034;-43
2023/04/10 02:54:45;;;;;;;23.25;16.42;;;;;;;9.81;68.56;101867.09;5074359;28;20024;-44
2023/04/10 02:57:10;;;;;;;24.23;16.17;;;;;;;9.75;68.19;101853.53;5073076;28;20033;-44
2023/04/10 02:59:35;;;;;;;26.00;16.52;;;;;;;9.83;68.39;101852.97;5074318;28;20115;-44
2023/04/10 03:02:01;;;;;;;23.10;16.15;;;;;;;9.86;68.66;101849.69;5074417;28;20056;-44
2023/04/10 03:04:27;;;;;;;23.35;16.40;;;;;;;9.85;68.21;101848.00;5074207;28;20448;-44
2023/04/10 03:06:53;;;;;;;22.55;16.08;;;;;;;9.81;68.37;101857.94;5074375;28;20027;-44
2023/04/10 03:09:18;;;;;;;23.75;17.70;;;;;;;9.79;68.30;101857.38;5074258;28;20036;-47
2023/04/10 03:11:43;;;;;;;23.92;16.77;;;;;;;9.77;68.41;101854.09;5074173;28;20405;-46
2023/04/10 03:14:09;;;;;;;23.30;16.25;;;;;;;9.77;68.40;101868.72;5074048;28;20505;-43
2023/04/10 03:16:34;;;;;;;22.58;16.58;;;;;;;9.77;68.06;101865.16;5074074;28;20032;-47
2023/04/10 03:19:00;;;;;;;23.02;16.27;;;;;;;9.69;67.50;101858.22;5072880;28;20106;-45
2023/04/10 03:21:26;;;;;;;22.08;15.48;;;;;;;9.73;68.63;101862.06;5072254;28;20040;-44
2023/04/10 03:23:51;;;;;;;23.25;15.68;;;;;;;9.70;68.21;101872.84;5074125;28;20082;-44
2023/04/10 03:26:16;;;;;;;23.08;16.02;;;;;;;9.61;68.24;101865.13;5073792;28;20029;-44
2023/04/10 03:28:42;;;;;;;22.80;16.40;;;;;;;9.61;67.71;101870.63;5073716;28;20029;-42
2023/04/10 03:31:07;;;;;;;23.00;16.00;;;;;;;9.57;68.55;101857.66;5073789;28;20035;-44
2023/04/10 03:33:32;;;;;;;23.90;16.10;;;;;;;9.58;68.73;101860.16;5072380;28;20389;-45
2023/04/10 03:35:57;;;;;;;23.55;16.20;;;;;;;9.57;68.32;101858.50;5069634;28;20126;-43
2023/04/10 03:38:23;;;;;;;23.92;15.48;;;;;;;9.56;68.20;101864.28;5073624;28;20048;-44
2023/04/10 03:40:48;;;;;;;22.50;16.05;;;;;;;9.47;68.03;101845.50;5073850;28;20036;-43
2023/04/10 03:43:13;;;;;;;22.52;16.90;;;;;;;9.39;68.47;101840.50;5073713;28;20067;-44
2023/04/10 03:45:39;;;;;;;22.80;15.10;;;;;;;9.40;68.83;101844.94;5073453;28;20482;-44
2023/04/10 03:48:04;;;;;;;22.98;16.27;;;;;;;9.43;67.98;101846.31;5073333;28;20037;-44
2023/04/10 03:50:30;;;;;;;22.98;16.27;;;;;;;9.37;67.78;101848.22;5073488;28;20020;-43
2023/04/10 03:52:55;;;;;;;21.63;15.38;;;;;;;9.38;68.86;101838.03;5073323;28;20466;-42
2023/04/10 03:55:20;;;;;;;22.48;16.33;;;;;;;9.36;68.17;101838.28;5073381;28;20024;-43
2023/04/10 03:57:47;;;;;;;22.25;15.73;;;;;;;9.34;68.21;101832.22;5072883;28;20036;-43
2023/04/10 04:00:14;;;;;;;22.65;15.52;;;;;;;9.36;68.84;101832.75;5074049;28;20119;-44
2023/04/10 04:02:40;;;;;;;22.85;16.17;;;;;;;9.37;68.89;101828.91;5092944;28;20509;-45
2023/04/10 04:05:05;;;;;;;22.77;15.60;;;;;;;9.40;68.28;101831.13;5093252;28;20028;-47
2023/04/10 04:07:31;;;;;;;22.40;16.38;;;;;;;9.35;67.65;101828.38;5093161;28;20044;-45
2023/04/10 04:09:56;;;;;;;22.50;15.75;;;;;;;9.32;68.04;101826.16;5093164;28;20023;-44
2023/04/10 04:12:21;;;;;;;22.17;16.23;;;;;;;9.31;68.58;101821.72;5091782;28;20020;-43
2023/04/10 04:14:46;;;;;;;23.23;16.02;;;;;;;9.26;68.38;101816.19;5091763;28;20028;-44
2023/04/10 04:17:12;;;;;;;22.42;15.88;;;;;;;9.23;67.88;101822.25;5093139;28;20378;-44
2023/04/10 04:19:37;;;;;;;21.83;15.68;;;;;;;9.15;68.16;101813.41;5092980;28;20111;-45
2023/04/10 04:22:03;;;;;;;22.77;15.55;;;;;;;9.18;68.41;101814.78;5093054;28;20099;-45
2023/04/10 04:24:28;;;;;;;22.10;15.90;;;;;;;9.16;68.66;101817.00;5092720;28;20028;-44
2023/04/10 04:26:53;;;;;;;22.42;16.27;;;;;;;9.13;68.06;101821.13;5092871;28;20028;-45
2023/04/10 04:29:19;;;;;;;22.33;16.23;;;;;;;9.13;68.31;101810.09;5092695;28;20493;-45
2023/04/10 04:31:44;;;;;;;21.80;15.30;;;;;;;9.13;68.59;101807.34;5092597;28;20542;-44
2023/04/10 04:34:10;;;;;;;22.20;16.25;;;;;;;9.12;68.55;101800.16;5092565;28;20032;-46
2023/04/10 04:36:35;;;;;;;22.90;15.65;;;;;;;9.14;68.46;101800.72;5087926;28;20047;-44
2023/04/10 04:39:00;;;;;;;21.77;16.48;;;;;;;9.14;67.98;101805.38;5092478;28;20406;-46
2023/04/10 04:41:25;;;;;;;23.42;16.55;;;;;;;9.08;68.62;101809.25;5092584;28;20073;-44
2023/04/10 04:43:52;;;;;;;23.15;16.90;;;;;;;9.03;68.69;101810.88;5092193;28;20052;-46
2023/04/10 04:46:17;;;;;;;22.60;15.98;;;;;;;9.02;68.82;101808.41;5091977;28;20142;-47
2023/04/10 04:48:43;;;;;;;22.92;16.50;;;;;;;8.98;68.88;101799.00;5092406;28;20517;-44
2023/04/10 04:51:08;;;;;;;22.92;16.27;;;;;;;9.01;69.14;101804.81;5092103;28;20032;-45
2023/04/10 04:53:33;;;;;;;22.92;16.38;;;;;;;9.01;68.92;101799.31;5092227;28;20024;-46
2023/04/10 04:55:59;;;;;;;22.73;15.40;;;;;;;9.08;69.54;101793.50;5092118;28;20131;-45
2023/04/10 04:58:24;;;;;;;22.75;15.85;;;;;;;9.05;68.29;101794.88;5090834;28;20027;-44
2023/04/10 05:00:53;;;;;;;22.38;16.00;;;;;;;9.08;69.58;101787.16;5092051;28;20024;-45
2023/04/10 05:03:18;;;;;;;24.02;16.38;;;;;;;9.14;68.29;101786.06;5092288;28;20024;-46
2023/04/10 05:05:44;;;;;;;21.67;16.67;;;;;;;9.15;68.42;101785.81;5092079;28;20028;-47
2023/04/10 05:08:09;;;;;;;22.58;16.48;;;;;;;9.13;67.77;101784.41;5092152;28;20040;-44
2023/04/10 05:10:35;;;;;;;23.25;15.75;;;;;;;9.13;68.36;101779.72;5092199;28;20111;-44
2023/04/10 05:13:00;;;;;;;22.17;15.80;;;;;;;9.14;68.43;101780.53;5090736;28;20028;-44
2023/04/10 05:15:25;;;;;;;22.23;15.43;;;;;;;9.10;68.22;101773.94;5091942;28;20028;-44
2023/04/10 05:17:51;;;;;;;22.92;16.40;;;;;;;9.09;68.35;101775.84;5091965;28;20104;-47
2023/04/10 05:20:17;;;;;;;22.30;15.18;;;;;;;9.05;68.01;101775.56;5092047;28;20024;-44
2023/04/10 05:22:42;;;;;;;22.90;15.75;;;;;;;9.04;67.93;101770.31;5091850;28;20078;-46
2023/04/10 05:25:08;;;;;;;21.52;14.85;;;;;;;9.05;68.76;101767.28;5091826;28;20084;-45
2023/04/10 05:27:33;;;;;;;22.58;15.27;;;;;;;9.03;68.08;101766.72;5091823;28;20024;-46
2023/04/10 05:29:58;;;;;;;22.98;15.50;;;;;;;9.07;68.21;101772.53;5091512;28;20024;-44
2023/04/10 05:32:24;;;;;;;21.85;14.95;;;;;;;9.09;68.62;101769.50;5091684;28;20048;-47
2023/04/10 05:34:49;;;;;;;22.40;15.23;;;;;;;9.14;68.01;101769.50;5091276;28;20028;-44
2023/04/10 05:37:14;;;;;;;21.65;15.30;;;;;;;9.10;67.77;101762.88;5088182;28;20028;-48
2023/04/10 05:39:40;;;;;;;22.27;15.48;;;;;;;9.10;68.15;101769.22;5091534;28;20160;-45
2023/04/10 05:42:05;;;;;;;22.73;16.02;;;;;;;9.12;68.63;101768.94;5091177;28;20028;-47
2023/04/10 05:44:30;;;;;;;21.92;16.05;;;;;;;9.07;67.53;101772.53;5091612;28;20066;-47
2023/04/10 05:46:55;;;;;;;22.00;15.77;;;;;;;9.12;68.31;101775.31;5091600;28;20106;-45
2023/04/10 05:49:21;;;;;;;22.30;15.38;;;;;;;9.21;68.68;101770.91;5091575;28;20055;-45
2023/04/10 05:51:49;;;;;;;23.02;15.82;;;;;;;9.27;68.29;101765.38;5091854;28;20103;-44
2023/04/10 05:54:15;;;;;;;22.25;15.48;;;;;;;9.31;67.90;101770.06;5091803;28;20088;-44
2023/04/10 05:56:40;;;;;;;23.05;15.50;;;;;;;9.31;68.10;101764.53;5091595;28;20031;-44
2023/04/10 05:59:06;;;;;;;22.45;16.02;;;;;;;9.36;67.91;101769.25;5091124;28;20024;-44
2023/04/10 06:01:31;;;;;;;22.40;15.82;;;;;;;9.41;67.75;101776.69;5091428;28;20099;-46
2023/04/10 06:03:56;;;;;;;22.15;15.73;;;;;;;9.40;67.86;101764.84;5091382;28;20027;-46
2023/04/10 06:06:24;;;;;;;22.08;15.23;;;;;;;9.39;67.86;101756.84;5091349;28;20388;-44
2023/04/10 06:08:50;;;;;;;21.55;15.18;;;;;;;9.41;67.75;101772.03;5091680;28;20055;-47
2023/04/10 06:11:15;;;;;;;21.48;15.55;;;;;;;9.42;67.03;101770.91;5091517;28;20046;-44
2023/04/10 06:13:40;;;;;;;22.08;15.88;;;;;;;9.47;67.33;101775.63;5091464;28;20028;-47
2023/04/10 06:16:07;;;;;;;23.73;17.23;;;;;;;9.50;67.60;101778.66;5091428;28;20063;-46
2023/04/10 06:18:32;;;;;;;23.27;15.75;;;;;;;9.42;67.60;101751.59;5091323;28;20074;-45
2023/04/10 06:21:00;;;;;;;22.58;15.93;;;;;;;9.58;67.64;101759.88;5091337;28;20032;-45
2023/04/10 06:23:26;;;;;;;21.95;15.18;;;;;;;9.65;67.49;101763.16;5091513;28;20038;-44
2023/04/10 06:25:52;;;;;;;22.05;15.38;;;;;;;9.73;67.31;101767.31;5091146;28;20020;-47
2023/04/10 06:28:17;;;;;;;22.33;15.55;;;;;;;9.68;67.08;101744.09;5091375;28;20100;-43
2023/04/10 06:30:42;;;;;;;22.02;15.20;;;;;;;9.85;67.08;101756.81;5086923;28;20054;-44
2023/04/10 06:33:07;;;;;;;21.35;15.02;;;;;;;9.94;67.70;101751.53;5091464;28;20503;-44
2023/04/10 06:35:33;;;;;;;22.02;15.75;;;;;;;9.95;67.08;101744.88;5091364;28;20059;-44
2023/04/10 06:37:59;;;;;;;22.40;15.73;;;;;;;9.97;66.53;101739.91;5091148;28;20027;-46
2023/04/10 06:40:24;;;;;;;22.73;16.40;;;;;;;10.02;66.67;101741.84;5090027;28;20115;-46
2023/04/10 06:42:50;;;;;;;22.42;15.50;;;;;;;10.09;66.68;101734.91;5091568;28;20511;-44
2023/04/10 06:45:15;;;;;;;22.75;15.93;;;;;;;10.13;66.19;101733.22;5091246;28;20020;-44
2023/04/10 06:47:40;;;;;;;22.75;16.52;;;;;;;10.18;66.20;101731.56;5091207;28;20028;-44
2023/04/10 06:50:06;;;;;;;22.13;15.68;;;;;;;10.20;65.54;101732.94;5073020;28;20028;-44
2023/04/10 06:52:31;;;;;;;22.63;16.05;;;;;;;10.24;66.27;101725.75;5087155;28;20024;-45
2023/04/10 06:54:57;;;;;;;22.45;15.30;;;;;;;10.32;66.38;101721.53;5094475;28;20020;-45
2023/04/10 06:57:22;;;;;;;22.55;16.08;;;;;;;10.40;65.51;101718.22;5095178;28;20035;-44
2023/04/10 06:59:47;;;;;;;21.75;15.55;;;;;;;10.41;65.53;101696.94;5094638;28;20476;-45
2023/04/10 07:02:13;;;;;;;21.30;15.13;;;;;;;10.51;64.92;101699.66;5094595;28;20074;-48
2023/04/10 07:04:38;;;;;;;22.73;15.70;;;;;;;10.57;64.85;101689.38;5094062;28;20138;-44
2023/04/10 07:07:08;;;;;;;21.58;14.73;;;;;;;10.61;64.68;101695.97;5093831;28;20026;-43
2023/04/10 07:09:33;;;;;;;22.70;15.50;;;;;;;10.67;64.70;101685.72;5094682;28;20028;-43
2023/04/10 07:11:59;;;;;;;21.77;16.02;;;;;;;10.68;63.84;101690.97;5086599;28;20029;-43
2023/04/10 07:14:24;;;;;;;21.55;15.25;;;;;;;10.71;63.88;101682.09;5073988;28;20031;-43
2023/04/10 07:16:50;;;;;;;22.23;15.70;;;;;;;10.75;63.38;101688.72;5080602;28;20024;-44
2023/04/10 07:19:15;;;;;;;22.63;15.65;;;;;;;10.81;63.56;101683.13;5094170;28;20044;-43
2023/04/10 07:21:40;;;;;;;23.00;15.50;;;;;;;10.84;63.31;101674.28;5094079;28;20106;-46
2023/04/10 07:24:06;;;;;;;21.75;15.00;;;;;;;10.91;63.97;101670.03;5094059;28;20343;-44
2023/04/10 07:26:31;;;;;;;21.80;14.65;;;;;;;10.98;64.14;101671.69;5093881;28;20021;-42
2023/04/10 07:28:56;;;;;;;22.17;14.95;;;;;;;11.00;63.61;101648.13;5094024;28;20028;-45
2023/04/10 07:31:21;;;;;;;22.60;15.30;;;;;;;11.12;63.75;101646.91;5094206;28;20027;-45
2023/04/10 07:33:47;;;;;;;21.85;14.75;;;;;;;11.30;66.52;101646.19;5094089;28;20097;-43
2023/04/10 07:36:12;;;;;;;20.20;14.07;;;;;;;11.53;65.30;101640.97;5093964;28;20529;-42
2023/04/10 07:38:38;;;;;;;23.73;15.60;;;;;;;11.68;63.06;101640.81;5093714;28;20087;-42
2023/04/10 07:41:04;;;;;;;20.65;12.30;;;;;;;12.09;66.68;101635.94;5093830;28;20107;-43
2023/04/10 07:43:30;;;;;;;21.50;14.30;;;;;;;12.27;61.35;101628.75;5094008;28;20059;-44
2023/04/10 07:45:56;;;;;;;21.02;15.18;;;;;;;12.30;61.37;101631.75;5093641;28;20066;-44
2023/04/10 07:48:22;;;;;;;21.00;14.80;;;;;;;12.23;59.05;101624.94;5089182;28;20119;-44
2023/04/10 07:50:47;;;;;;;20.92;14.68;;;;;;;12.26;59.90;101621.56;5093602;28;20459;-44
2023/04/10 07:53:13;;;;;;;21.20;14.98;;;;;;;12.29;60.79;101621.78;5086667;28;20036;-44
2023/04/10 07:55:42;;;;;;;21.27;14.95;;;;;;;12.29;59.01;101624.56;5092241;28;20032;-43
2023/04/10 07:58:08;;;;;;;20.65;14.88;;;;;;;12.31;58.46;101618.72;5091704;28;20470;-43
2023/04/10 08:00:34;;;;;;;23.00;15.45;;;;;;;12.37;58.84;101613.94;5091676;28;20022;-43
2023/04/10 08:03:00;;;;;;;21.63;15.30;;;;;;;12.47;59.34;101611.81;5091940;28;20469;-43
2023/04/10 08:05:25;;;;;;;20.58;14.55;;;;;;;12.54;57.79;101593.97;5091149;28;20032;-42
2023/04/10 08:07:50;;;;;;;21.00;15.30;;;;;;;12.62;57.89;101598.81;5091334;28;20582;-42
2023/04/10 08:10:16;;;;;;;20.77;14.88;;;;;;;12.71;58.92;101598.97;5091547;28;20028;-42
2023/04/10 08:12:41;;;;;;;20.88;14.40;;;;;;;12.82;58.58;101592.13;5091563;28;20059;-42
2023/04/10 08:15:07;;;;;;;20.73;14.15;;;;;;;13.07;61.39;101596.44;5091309;28;20370;-42
2023/04/10 08:17:32;;;;;;;21.13;15.00;;;;;;;13.20;57.09;101592.03;5091576;28;20115;-43
2023/04/10 08:19:57;;;;;;;21.70;13.85;;;;;;;13.38;58.83;101581.16;5091876;28;20039;-43
2023/04/10 08:22:23;;;;;;;20.88;14.70;;;;;;;13.40;56.93;101590.03;5090238;28;20477;-43
2023/04/10 08:24:48;;;;;;;22.55;15.10;;;;;;;13.39;56.03;101575.31;5076822;28;20470;-42
2023/04/10 08:27:15;;;;;;;20.60;14.98;;;;;;;13.49;57.74;101585.41;5071037;28;20032;-42
2023/04/10 08:29:40;;;;;;;21.38;14.32;;;;;;;13.55;57.90;101589.72;5086000;28;20111;-42
2023/04/10 08:32:06;;;;;;;22.10;15.40;;;;;;;13.51;56.21;101585.91;5092361;28;20088;-41
2023/04/10 08:34:31;;;;;;;20.92;14.98;;;;;;;13.51;55.81;101580.34;5092480;28;20107;-43
2023/04/10 08:36:57;;;;;;;21.85;15.27;;;;;;;13.54;55.47;101581.69;5092429;28;20165;-43
2023/04/10 08:39:22;;;;;;;21.33;15.63;;;;;;;13.56;55.71;101576.63;5090925;28;20477;-42
2023/04/10 08:41:48;;;;;;;22.20;15.60;;;;;;;13.62;55.80;101585.69;5092561;28;20029;-43
2023/04/10 08:44:13;;;;;;;22.35;15.32;;;;;;;13.66;55.68;101587.56;5092232;28;20469;-42
2023/04/10 08:46:42;;;;;;;21.23;14.52;;;;;;;13.74;55.46;101569.34;5091178;28;20130;-42
2023/04/10 08:49:14;;;;;;;22.60;15.65;;;;;;;13.79;55.72;101577.56;5091141;28;20024;-43
2023/04/10 08:51:50;;;;;;;21.90;15.65;;;;;;;13.80;56.39;101562.53;5091259;28;20032;-44
2023/04/10 08:54:26;;;;;;;21.30;15.07;;;;;;;13.81;56.01;101549.47;5091144;28;20071;-46
2023/04/10 08:56:53;;;;;;;20.73;14.55;;;;;;;13.82;55.70;101556.66;5091533;28;20073;-42
2023/04/10 08:59:19;;;;;;;21.70;15.35;;;;;;;13.87;55.23;101562.09;5091396;28;20035;-42
2023/04/10 09:01:45;;;;;;;20.48;14.63;;;;;;;13.93;55.35;101571.16;5092268;28;20130;-42
2023/04/10 09:04:11;;;;;;;21.15;15.02;;;;;;;13.96;55.24;101568.59;5092271;28;20024;-42
2023/04/10 09:06:37;;;;;;;22.73;15.18;;;;;;;14.02;55.55;101555.38;5092123;28;20453;-42
2023/04/10 09:09:02;;;;;;;21.67;14.85;;;;;;;14.05;55.01;101557.56;5092126;28;20111;-42
2023/04/10 09:11:55;;;;;;;21.67;15.23;;;;;;;14.11;56.17;101566.59;5092146;28;20032;-41
2023/04/10 09:14:25;;;;;;;21.85;15.60;;;;;;;14.14;56.05;101550.09;5092095;28;20024;-43
2023/04/10 09:16:52;;;;;;;21.48;15.38;;;;;;;14.13;54.94;101548.47;5091328;28;20036;-42
2023/04/10 09:19:32;;;;;;;22.35;15.02;;;;;;;14.17;55.36;101545.88;5092008;28;20035;-42
2023/04/10 09:21:57;;;;;;;21.30;14.68;;;;;;;14.20;54.93;101539.69;5091922;28;20103;-42
2023/04/10 09:24:23;;;;;;;20.73;13.75;;;;;;;14.23;55.54;101535.44;5091801;28;20453;-42
2023/04/10 09:26:48;;;;;;;21.88;16.17;;;;;;;14.24;55.08;101531.53;5091895;28;20442;-41
2023/04/10 09:29:15;;;;;;;21.50;15.00;;;;;;;14.27;55.38;101531.72;5091821;28;20028;-42
2023/04/10 09:31:41;;;;;;;20.80;14.45;;;;;;;14.29;55.62;101521.09;5092142;28;20036;-41
2023/04/10 09:34:15;;;;;;;20.70;14.77;;;;;;;14.32;55.28;101511.28;5092021;28;20032;-42
2023/04/10 09:36:42;;;;;;;20.67;15.23;;;;;;;14.36;55.10;101517.84;5091879;28;20158;-42
2023/04/10 09:39:10;;;;;;;20.85;14.35;;;;;;;14.41;55.26;101511.34;5091628;28;20121;-42
2023/04/10 09:41:47;;;;;;;21.05;15.52;;;;;;;14.41;54.81;101505.78;5091614;28;20583;-42
2023/04/10 09:44:12;;;;;;;20.60;14.40;;;;;;;14.47;55.33;101494.22;5091692;28;20027;-42
2023/04/10 09:46:38;;;;;;;20.90;14.90;;;;;;;14.57;55.61;101492.31;5091573;28;20028;-43
2023/04/10 09:49:04;;;;;;;20.60;15.15;;;;;;;14.60;55.54;101488.88;5091585;28;20066;-43
2023/04/10 09:51:34;;;;;;;20.35;15.07;;;;;;;14.58;55.14;101475.28;5091790;28;20028;-41
2023/04/10 09:54:01;;;;;;;21.70;14.65;;;;;;;14.68;54.85;101478.97;5091744;28;20039;-43
2023/04/10 09:56:28;;;;;;;20.77;14.95;;;;;;;14.73;54.95;101476.88;5091596;28;20059;-44
2023/04/10 09:58:57;;;;;;;21.98;14.95;;;;;;;14.71;55.41;101472.75;5091567;28;20498;-42
2023/04/10 10:01:25;;;;;;;21.00;15.10;;;;;;;14.75;55.22;101471.78;5091626;28;20024;-44
2023/04/10 10:03:52;;;;;;;19.90;14.00;;;;;;;14.87;55.51;101460.09;5091612;28;20036;-43
2023/04/10 10:06:17;;;;;;;21.45;14.77;;;;;;;14.87;54.88;101462.03;5091663;28;20505;-42
2023/04/10 10:08:44;;;;;;;21.08;15.43;;;;;;;14.93;55.26;101467.16;5091690;28;20023;-44
2023/04/10 10:11:12;;;;;;;21.02;15.15;;;;;;;15.01;54.84;101459.97;5091539;28;20034;-43
2023/04/10 10:13:48;;;;;;;21.88;16.08;;;;;;;15.04;55.12;101450.16;5091504;28;20028;-44
2023/04/10 10:16:31;;;;;;;21.55;15.80;;;;;;;15.09;55.13;101450.00;5091529;28;20031;-44
2023/04/10 10:19:15;;;;;;;19.98;13.57;;;;;;;15.13;55.59;101439.84;5091467;28;20036;-42
2023/04/10 10:21:43;;;;;;;20.63;14.68;;;;;;;15.19;55.06;101452.50;5091479;28;20081;-43
2023/04/10 10:24:09;;;;;;;22.02;15.43;;;;;;;15.24;55.12;101445.94;5091534;28;20032;-44
2023/04/10 10:26:37;;;;;;;20.15;14.77;;;;;;;15.26;55.65;101427.75;5091351;28;20162;-42
2023/04/10 10:29:05;;;;;;;20.77;14.73;;;;;;;15.28;54.74;101417.09;5095026;28;20028;-43
2023/04/10 10:31:33;;;;;;;19.90;13.73;;;;;;;15.38;54.79;101407.63;5093751;28;20353;-44
2023/04/10 10:34:03;;;;;;;19.67;13.93;;;;;;;15.47;54.82;101410.41;5095313;28;20139;-45
2023/04/10 10:36:30;;;;;;;19.48;13.45;;;;;;;15.53;54.12;101406.34;5095138;28;20028;-44
2023/04/10 10:39:41;;;;;;;19.17;12.65;;;;;;;15.60;54.86;101412.25;5095075;28;20052;-43
2023/04/10 10:42:17;;;;;;;18.45;12.52;;;;;;;15.63;53.36;101404.38;5095191;28;20389;-44
2023/04/10 10:45:20;;;;;;;19.05;13.20;;;;;;;15.73;54.59;101392.88;5094954;28;20141;-44
2023/04/10 10:47:51;;;;;;;18.85;12.30;;;;;;;15.73;53.87;101393.69;5094799;28;20411;-43
2023/04/10 10:50:17;;;;;;;19.23;12.77;;;;;;;15.81;53.77;101389.28;5094874;28;20500;-42
2023/04/10 10:52:51;;;;;;;18.88;12.40;;;;;;;15.84;53.76;101385.03;5095026;28;20020;-41
2023/04/10 10:55:35;;;;;;;18.92;12.60;;;;;;;15.86;53.82;101375.19;5094739;28;20106;-42
2023/04/10 10:58:03;;;;;;;17.73;12.02;;;;;;;15.84;53.59;101359.94;5093440;28;20126;-43
2023/04/10 11:00:50;;;;;;;17.63;11.73;;;;;;;15.94;54.12;101369.91;5094495;28;20028;-41
2023/04/10 11:03:16;;;;;;;17.65;11.93;;;;;;;15.96;53.01;101367.63;5094627;28;20080;-43
2023/04/10 11:05:53;;;;;;;16.70;11.60;;;;;;;15.95;53.71;101352.88;5094387;28;20511;-43
2023/04/10 11:08:34;;;;;;;18.05;12.10;;;;;;;16.01;54.13;101354.31;5094620;28;20621;-42
2023/04/10 11:11:06;;;;;;;18.10;11.60;;;;;;;16.04;53.29;101356.47;5094378;28;20028;-42
2023/04/10 11:13:36;;;;;;;17.10;11.48;;;;;;;16.08;53.37;101359.41;5094610;28;20089;-43